Time;durP1;ratioP1;P1;durP2;ratioP2;P2;SDS_P1;SDS_P2;PMS_P1;PMS_P2;Temp;Humidity;BMP_temperature;BMP_pressure;BME280_temperature;BME280_humidity;BME280_pressure;Samples;Min_cycle;Max_cycle;Signal;HPM_P1;HPM_P2
2021/10/14 00:00:23;;;;;;;10.60;6.43;;;;;;;10.08;64.89;101852.97;6123312;23;20172;-59
2021/10/14 00:02:48;;;;;;;9.40;7.47;;;;;;;10.02;64.71;101859.28;6123495;23;20463;-60
2021/10/14 00:05:16;;;;;;;9.47;7.10;;;;;;;9.99;65.05;101855.34;6122850;23;20159;-59
2021/10/14 00:07:41;;;;;;;8.97;7.23;;;;;;;9.45;64.70;101788.59;6123478;23;20160;-59
2021/10/14 00:10:07;;;;;;;9.10;7.27;;;;;;;9.93;65.09;101845.84;6123261;23;20551;-59
2021/10/14 00:12:33;;;;;;;8.93;7.67;;;;;;;9.94;65.52;101855.75;6123868;23;20154;-60
2021/10/14 00:14:58;;;;;;;8.50;7.10;;;;;;;9.95;65.88;101865.63;6123287;23;20547;-61
2021/10/14 00:17:25;;;;;;;8.80;7.43;;;;;;;9.85;64.78;101860.88;6123220;23;20613;-61
2021/10/14 00:19:50;;;;;;;9.70;6.53;;;;;;;9.93;65.66;101868.00;6123715;23;20177;-60
2021/10/14 00:22:16;;;;;;;8.27;7.37;;;;;;;9.37;65.39;101784.25;6123510;23;20666;-61
2021/10/14 00:24:41;;;;;;;10.27;7.70;;;;;;;9.88;65.03;101875.91;6123414;23;20156;-61
2021/10/14 00:27:07;;;;;;;9.20;7.97;;;;;;;9.68;65.15;101841.56;6123412;23;20237;-61
2021/10/14 00:29:32;;;;;;;8.53;7.40;;;;;;;9.52;65.14;101819.00;6123176;23;20185;-61
2021/10/14 00:31:58;;;;;;;12.17;7.30;;;;;;;9.42;65.34;101800.44;6123724;23;20146;-61
2021/10/14 00:34:23;;;;;;;9.90;7.47;;;;;;;9.92;65.16;101873.94;6123480;23;20160;-61
2021/10/14 00:36:49;;;;;;;12.57;7.10;;;;;;;9.84;65.54;101867.63;6123146;23;20598;-61
2021/10/14 00:39:14;;;;;;;11.23;7.90;;;;;;;9.89;64.65;101877.53;6122876;23;20217;-61
2021/10/14 00:41:40;;;;;;;9.33;7.60;;;;;;;9.91;64.51;101877.91;6123164;23;20155;-61
2021/10/14 00:44:05;;;;;;;9.67;8.10;;;;;;;9.89;64.68;101880.28;6123142;23;20611;-61
2021/10/14 00:46:31;;;;;;;10.27;7.73;;;;;;;9.86;64.27;101881.88;6123307;23;20627;-61
2021/10/14 00:48:56;;;;;;;11.40;7.57;;;;;;;9.86;64.77;101889.38;6121581;23;20522;-61
2021/10/14 00:51:22;;;;;;;10.93;8.33;;;;;;;9.82;64.48;101883.03;6122736;23;20191;-61
2021/10/14 00:53:48;;;;;;;9.40;7.70;;;;;;;9.79;64.73;101876.31;6123059;23;20608;-61
2021/10/14 00:56:15;;;;;;;8.87;7.13;;;;;;;9.73;64.47;101875.16;6122627;23;20230;-60
2021/10/14 00:58:41;;;;;;;13.20;7.83;;;;;;;9.64;64.28;101874.75;6122877;23;20160;-61
2021/10/14 01:01:06;;;;;;;8.23;7.43;;;;;;;9.66;64.19;101877.94;6123342;23;20553;-61
2021/10/14 01:03:33;;;;;;;9.13;7.60;;;;;;;9.67;64.04;101878.69;6121637;23;20163;-58
2021/10/14 01:05:59;;;;;;;11.43;8.23;;;;;;;9.61;63.97;101874.75;6121609;23;20248;-60
2021/10/14 01:08:25;;;;;;;8.63;7.20;;;;;;;9.69;64.04;101882.66;6122846;23;20177;-58
2021/10/14 01:10:51;;;;;;;7.80;7.00;;;;;;;9.37;64.43;101834.06;6123283;23;20288;-61
2021/10/14 01:13:17;;;;;;;9.23;7.13;;;;;;;9.67;64.40;101889.78;6123102;23;20165;-61
2021/10/14 01:15:44;;;;;;;9.60;7.20;;;;;;;9.66;64.20;101894.53;6123128;23;20152;-61
2021/10/14 01:18:11;;;;;;;8.70;7.50;;;;;;;9.59;64.26;101894.53;6123048;23;20548;-61
2021/10/14 01:20:37;;;;;;;8.97;7.47;;;;;;;9.64;63.93;101898.88;6123125;23;20621;-61
2021/10/14 01:23:02;;;;;;;8.23;7.37;;;;;;;9.64;64.13;101894.13;6122893;23;20231;-61
2021/10/14 01:25:30;;;;;;;11.40;7.10;;;;;;;9.65;63.65;101895.72;6122872;23;20180;-61
2021/10/14 01:27:55;;;;;;;10.67;7.33;;;;;;;9.32;64.29;101854.59;6122698;23;20192;-58
2021/10/14 01:30:21;;;;;;;11.60;7.43;;;;;;;9.67;64.36;101895.31;6122583;23;20210;-60
2021/10/14 01:32:49;;;;;;;9.47;7.63;;;;;;;9.64;63.80;101890.59;6123430;23;20141;-61
2021/10/14 01:35:16;;;;;;;7.63;6.83;;;;;;;9.64;63.38;101891.34;6124696;23;20154;-61
2021/10/14 01:37:41;;;;;;;8.80;6.93;;;;;;;9.60;64.16;101901.66;6124432;23;20160;-58
2021/10/14 01:40:07;;;;;;;9.40;7.20;;;;;;;9.50;63.47;101893.34;6124527;23;20608;-61
2021/10/14 01:42:33;;;;;;;8.23;7.03;;;;;;;9.38;64.03;101896.50;6123943;23;20581;-60
2021/10/14 01:45:00;;;;;;;10.17;7.53;;;;;;;8.81;63.98;101807.09;6124603;23;20154;-60
2021/10/14 01:47:26;;;;;;;9.40;7.77;;;;;;;9.27;64.03;101873.56;6124055;23;20615;-61
2021/10/14 01:49:51;;;;;;;9.87;7.40;;;;;;;9.33;64.04;101894.91;6124428;23;20290;-60
2021/10/14 01:52:16;;;;;;;9.53;6.93;;;;;;;9.22;63.83;101877.50;6124032;23;20159;-60
2021/10/14 01:54:42;;;;;;;8.83;7.20;;;;;;;9.38;64.15;101907.56;6124268;23;20157;-60
2021/10/14 01:57:07;;;;;;;9.37;7.13;;;;;;;9.02;65.04;101845.84;6124117;23;20608;-60
2021/10/14 01:59:33;;;;;;;7.80;6.73;;;;;;;9.02;65.85;101858.91;6124174;23;20158;-60
2021/10/14 02:01:58;;;;;;;9.93;7.73;;;;;;;9.23;64.91;101915.03;6124151;23;20154;-61
2021/10/14 02:04:24;;;;;;;10.47;7.47;;;;;;;9.26;65.33;101924.53;6123848;23;20175;-61
2021/10/14 02:06:49;;;;;;;9.97;8.20;;;;;;;9.02;64.86;101878.25;6124366;23;20160;-60
2021/10/14 02:09:15;;;;;;;8.50;7.10;;;;;;;9.21;65.18;101917.41;6123502;23;20504;-60
2021/10/14 02:11:40;;;;;;;9.90;7.27;;;;;;;9.14;65.53;101908.31;6124250;23;20190;-61
2021/10/14 02:14:06;;;;;;;8.90;7.83;;;;;;;8.62;65.57;101843.38;6124431;23;20152;-60
2021/10/14 02:16:32;;;;;;;9.63;8.00;;;;;;;9.10;65.94;101916.59;6124703;23;20154;-61
2021/10/14 02:18:58;;;;;;;9.97;8.00;;;;;;;9.12;65.41;101914.22;6124437;23;20598;-59
2021/10/14 02:21:23;;;;;;;10.90;8.03;;;;;;;9.06;65.22;101907.50;6122847;23;20628;-62
2021/10/14 02:23:48;;;;;;;9.40;8.40;;;;;;;8.87;65.34;101884.94;6124296;23;20154;-62
2021/10/14 02:26:14;;;;;;;11.00;7.93;;;;;;;9.03;65.39;101910.25;6123714;23;20166;-62
2021/10/14 02:28:40;;;;;;;13.77;8.53;;;;;;;9.02;65.70;101906.69;6122824;23;20215;-62
2021/10/14 02:31:05;;;;;;;10.57;8.10;;;;;;;9.03;65.31;101916.56;6123553;23;20223;-62
2021/10/14 02:33:30;;;;;;;10.87;7.80;;;;;;;9.05;65.13;101924.47;6124093;23;20167;-62
2021/10/14 02:35:56;;;;;;;12.57;8.07;;;;;;;9.07;64.87;101922.91;6124033;23;20181;-62
2021/10/14 02:38:21;;;;;;;9.57;7.47;;;;;;;9.09;64.18;101917.78;6123838;23;20150;-62
2021/10/14 02:40:47;;;;;;;9.70;7.97;;;;;;;9.00;64.66;101908.25;6123945;23;20150;-62
2021/10/14 02:43:12;;;;;;;9.80;7.97;;;;;;;9.01;64.56;101932.75;6123564;23;20162;-62
2021/10/14 02:45:38;;;;;;;11.20;7.43;;;;;;;8.91;64.83;101921.69;6125083;23;20179;-62
2021/10/14 02:48:03;;;;;;;9.93;7.73;;;;;;;9.05;65.18;101936.34;6127502;23;20177;-62
2021/10/14 02:50:29;;;;;;;8.13;7.33;;;;;;;8.71;64.82;101870.66;6127467;23;20214;-62
2021/10/14 02:52:54;;;;;;;9.00;7.40;;;;;;;9.12;65.45;101939.09;6128320;23;20158;-63
2021/10/14 02:55:20;;;;;;;9.37;7.87;;;;;;;9.08;65.57;101918.16;6127766;23;20151;-63
2021/10/14 02:57:45;;;;;;;11.37;7.87;;;;;;;9.13;64.59;101940.69;6123891;23;20677;-62
2021/10/14 03:00:11;;;;;;;11.07;7.90;;;;;;;9.15;64.25;101946.63;6123373;23;20151;-62
2021/10/14 03:02:37;;;;;;;9.57;8.03;;;;;;;9.16;64.53;101950.97;6123778;23;20663;-62
2021/10/14 03:05:03;;;;;;;8.43;7.27;;;;;;;9.14;64.32;101944.25;6123529;23;20151;-62
2021/10/14 03:07:28;;;;;;;9.83;7.60;;;;;;;9.16;64.47;101950.19;6123547;23;20210;-62
2021/10/14 03:09:54;;;;;;;8.83;7.93;;;;;;;9.18;64.50;101953.34;6123915;23;20189;-62
2021/10/14 03:12:19;;;;;;;10.07;8.47;;;;;;;9.15;64.42;101952.16;6123557;23;20186;-62
2021/10/14 03:14:45;;;;;;;10.33;8.50;;;;;;;9.15;64.34;101948.59;6123878;23;20152;-62
2021/10/14 03:17:10;;;;;;;9.80;8.50;;;;;;;9.20;64.27;101942.69;6123872;23;20187;-62
2021/10/14 03:19:36;;;;;;;9.67;7.97;;;;;;;9.13;64.68;101934.38;6124221;23;20544;-62
2021/10/14 03:22:03;;;;;;;12.10;8.27;;;;;;;8.97;64.41;101904.28;6123862;23;20235;-62
2021/10/14 03:24:29;;;;;;;9.83;7.67;;;;;;;9.05;64.29;101916.97;6123961;23;20151;-62
2021/10/14 03:26:55;;;;;;;9.37;7.90;;;;;;;9.21;63.97;101947.03;6123794;23;20158;-62
2021/10/14 03:29:20;;;;;;;9.43;8.00;;;;;;;9.21;64.34;101956.13;6123587;23;20213;-62
2021/10/14 03:31:46;;;;;;;8.60;7.70;;;;;;;9.28;64.07;101960.91;6123636;23;20217;-62
2021/10/14 03:34:11;;;;;;;10.23;8.10;;;;;;;9.02;64.19;101926.03;6123636;23;20170;-62
2021/10/14 03:36:37;;;;;;;8.97;8.07;;;;;;;9.18;63.83;101973.50;6123902;23;20151;-62
2021/10/14 03:39:03;;;;;;;11.70;7.93;;;;;;;8.83;63.80;101912.56;6123409;23;20152;-62
2021/10/14 03:41:28;;;;;;;10.20;7.80;;;;;;;9.06;63.82;101946.19;6123851;23;20154;-62
2021/10/14 03:43:54;;;;;;;9.70;8.03;;;;;;;9.23;63.44;101964.03;6126117;23;20223;-62
2021/10/14 03:46:19;;;;;;;10.80;7.80;;;;;;;9.24;63.59;101971.97;6124092;23;20332;-62
2021/10/14 03:48:44;;;;;;;8.97;7.63;;;;;;;9.15;63.70;101966.00;6123549;23;20294;-62
2021/10/14 03:51:10;;;;;;;8.20;7.30;;;;;;;8.91;63.60;101922.44;6123315;23;20180;-62
2021/10/14 03:53:35;;;;;;;8.20;7.30;;;;;;;9.29;63.70;101976.31;6123470;23;20209;-62
2021/10/14 03:56:01;;;;;;;8.97;7.40;;;;;;;9.27;64.15;101976.69;6122585;23;20155;-62
2021/10/14 03:58:26;;;;;;;8.90;7.50;;;;;;;9.30;64.35;101989.75;6121613;23;20199;-61
2021/10/14 04:00:53;;;;;;;8.80;6.73;;;;;;;9.28;64.40;101994.09;6122009;23;20163;-61
2021/10/14 04:03:18;;;;;;;10.43;7.80;;;;;;;9.35;64.22;101989.38;6123360;23;20500;-61
2021/10/14 04:05:44;;;;;;;12.17;8.50;;;;;;;9.38;64.27;101993.34;6121472;23;20186;-61
2021/10/14 04:08:09;;;;;;;8.80;7.77;;;;;;;9.39;63.06;102000.44;6122939;23;20160;-62
2021/10/14 04:10:36;;;;;;;8.80;7.77;;;;;;;9.19;64.08;101971.53;6123708;23;20266;-62
2021/10/14 04:13:02;;;;;;;8.90;7.37;;;;;;;9.40;64.59;102007.56;6123573;23;20159;-62
2021/10/14 04:15:27;;;;;;;12.27;7.50;;;;;;;9.33;64.12;101994.50;6123452;23;20179;-62
2021/10/14 04:17:52;;;;;;;9.20;7.10;;;;;;;9.32;64.21;101992.13;6123389;23;20153;-62
2021/10/14 04:20:18;;;;;;;11.40;7.80;;;;;;;9.33;63.60;101997.25;6123795;23;20495;-62
2021/10/14 04:22:45;;;;;;;9.53;7.43;;;;;;;9.29;63.15;101992.91;6123048;23;20185;-62
2021/10/14 04:25:11;;;;;;;8.63;7.83;;;;;;;9.29;64.19;101990.13;6121411;23;20164;-62
2021/10/14 04:27:36;;;;;;;9.83;8.00;;;;;;;9.24;63.96;101991.31;6122857;23;20157;-62
2021/10/14 04:30:02;;;;;;;11.43;7.60;;;;;;;9.11;64.24;101979.00;6120805;23;20231;-62
2021/10/14 04:32:28;;;;;;;11.93;7.50;;;;;;;9.21;64.10;101985.75;6122822;23;20161;-62
2021/10/14 04:34:53;;;;;;;10.10;7.73;;;;;;;9.17;63.81;101994.03;6123336;23;20157;-62
2021/10/14 04:37:19;;;;;;;10.17;6.93;;;;;;;9.16;63.69;101994.44;6123169;23;20513;-63
2021/10/14 04:39:44;;;;;;;8.63;7.47;;;;;;;9.22;64.28;101993.66;6121327;23;20242;-63
2021/10/14 04:42:10;;;;;;;9.27;7.00;;;;;;;9.16;64.00;101994.44;6116902;23;20151;-64
2021/10/14 04:44:35;;;;;;;11.57;8.47;;;;;;;9.02;63.83;101978.56;6121916;23;20633;-64
2021/10/14 04:47:02;;;;;;;13.27;9.03;;;;;;;9.18;64.16;102000.38;6121786;23;20560;-64
2021/10/14 04:49:28;;;;;;;13.40;8.50;;;;;;;9.25;63.81;102001.19;6118882;23;20150;-64
2021/10/14 04:51:53;;;;;;;9.33;7.77;;;;;;;9.31;64.27;102007.94;6122432;23;20180;-64
2021/10/14 04:54:19;;;;;;;10.37;7.93;;;;;;;9.21;64.25;101992.09;6121267;23;20185;-64
2021/10/14 04:56:44;;;;;;;11.13;7.70;;;;;;;9.44;64.28;102024.97;6112901;23;20182;-64
2021/10/14 04:59:10;;;;;;;8.43;7.50;;;;;;;9.26;62.77;101993.66;6117007;23;20154;-64
2021/10/14 05:01:35;;;;;;;10.33;8.17;;;;;;;9.34;63.49;102009.94;6103891;23;20177;-64
2021/10/14 05:04:01;;;;;;;8.83;7.97;;;;;;;9.19;64.04;102001.97;6112555;23;20162;-64
2021/10/14 05:06:26;;;;;;;11.63;9.70;;;;;;;9.36;64.57;102013.09;6116915;23;20180;-64
2021/10/14 05:08:52;;;;;;;16.60;9.53;;;;;;;9.19;64.45;101974.31;6121392;23;20152;-64
2021/10/14 05:11:17;;;;;;;11.10;8.83;;;;;;;9.40;64.70;102007.56;6121859;23;20255;-64
2021/10/14 05:13:43;;;;;;;16.90;10.13;;;;;;;9.37;64.81;102009.13;6122397;23;20160;-64
2021/10/14 05:16:08;;;;;;;14.77;8.43;;;;;;;9.39;64.74;102025.34;6121590;23;20151;-64
2021/10/14 05:18:34;;;;;;;13.47;8.30;;;;;;;9.32;64.59;102005.97;6122877;23;20160;-64
2021/10/14 05:20:59;;;;;;;9.37;7.47;;;;;;;9.18;64.54;101984.56;6117849;23;20182;-64
2021/10/14 05:23:25;;;;;;;9.27;7.90;;;;;;;9.37;64.58;102005.59;6120441;23;20157;-64
2021/10/14 05:25:51;;;;;;;10.37;8.00;;;;;;;9.29;64.64;101992.91;6120647;23;20157;-64
2021/10/14 05:28:16;;;;;;;8.63;7.73;;;;;;;9.48;64.59;102034.09;6117156;23;20237;-64
2021/10/14 05:30:42;;;;;;;11.30;8.47;;;;;;;9.36;64.63;102003.97;6121288;23;20202;-65
2021/10/14 05:33:08;;;;;;;9.80;7.57;;;;;;;9.35;64.67;101996.88;6123072;23;20229;-64
2021/10/14 05:35:33;;;;;;;10.80;7.87;;;;;;;9.63;64.62;102047.56;6121740;23;20211;-64
2021/10/14 05:37:59;;;;;;;9.67;8.30;;;;;;;9.48;64.28;102021.03;6122268;23;20228;-64
2021/10/14 05:40:24;;;;;;;13.00;8.73;;;;;;;9.66;64.33;102027.41;6122715;23;20147;-64
2021/10/14 05:42:50;;;;;;;12.33;8.63;;;;;;;9.94;63.51;102037.75;6122432;23;20615;-64
2021/10/14 05:45:15;;;;;;;13.20;9.00;;;;;;;9.88;63.64;102033.75;6121638;23;20157;-64
2021/10/14 05:47:41;;;;;;;12.40;8.80;;;;;;;10.15;62.81;102054.41;6122380;23;20523;-64
2021/10/14 05:50:07;;;;;;;12.93;8.80;;;;;;;10.25;62.23;102064.69;6120759;23;20185;-64
2021/10/14 05:52:33;;;;;;;11.67;8.90;;;;;;;10.33;60.97;102058.75;6121122;23;20166;-64
2021/10/14 05:54:59;;;;;;;10.30;7.80;;;;;;;10.41;61.38;102060.31;6122400;23;20364;-64
2021/10/14 05:57:25;;;;;;;9.07;7.60;;;;;;;10.42;61.30;102050.84;6122011;23;20235;-64
2021/10/14 05:59:51;;;;;;;14.50;8.30;;;;;;;10.57;61.00;102063.50;6120762;23;20157;-64
2021/10/14 06:02:17;;;;;;;10.87;8.37;;;;;;;10.67;60.75;102076.53;6115376;23;20491;-62
2021/10/14 06:04:42;;;;;;;11.20;7.40;;;;;;;10.76;60.50;102079.69;6118622;23;20155;-62
2021/10/14 06:07:08;;;;;;;9.30;7.77;;;;;;;10.57;59.88;102046.88;6120293;23;20154;-62
2021/10/14 06:09:34;;;;;;;12.60;8.13;;;;;;;10.85;59.86;102074.53;6120531;23;20184;-63
2021/10/14 06:11:59;;;;;;;9.73;7.20;;;;;;;10.98;59.75;102086.81;6119822;23;20161;-62
2021/10/14 06:14:25;;;;;;;14.80;7.97;;;;;;;11.05;59.79;102092.31;6121059;23;20180;-62
2021/10/14 06:16:50;;;;;;;10.87;7.93;;;;;;;11.02;59.71;102089.56;6119944;23;20154;-63
2021/10/14 06:19:15;;;;;;;11.30;7.40;;;;;;;11.11;59.80;102095.47;6120475;23;20617;-62
2021/10/14 06:21:41;;;;;;;10.30;8.00;;;;;;;10.93;59.65;102062.25;6118861;23;20162;-62
2021/10/14 06:24:07;;;;;;;9.03;7.60;;;;;;;11.17;59.18;102097.44;6119520;23;20150;-64
2021/10/14 06:26:32;;;;;;;13.07;7.37;;;;;;;11.27;59.18;102101.38;6117358;23;20157;-63
2021/10/14 06:28:57;;;;;;;8.10;7.07;;;;;;;11.27;59.42;102099.38;6119364;23;20164;-63
2021/10/14 06:31:23;;;;;;;9.87;7.10;;;;;;;11.30;59.41;102095.81;6117666;23;20278;-63
2021/10/14 06:33:49;;;;;;;9.57;7.70;;;;;;;11.35;59.14;102092.63;6118474;23;20220;-63
2021/10/14 06:36:14;;;;;;;12.83;8.50;;;;;;;11.56;59.04;102108.41;6117008;23;20155;-63
2021/10/14 06:38:40;;;;;;;10.70;7.47;;;;;;;11.42;58.68;102097.38;6118890;23;20213;-63
2021/10/14 06:41:05;;;;;;;11.87;8.00;;;;;;;11.56;58.73;102114.75;6117476;23;20161;-63
2021/10/14 06:43:31;;;;;;;10.40;8.10;;;;;;;11.60;58.36;102115.56;6118448;23;20158;-63
2021/10/14 06:45:56;;;;;;;11.20;8.53;;;;;;;11.69;58.76;102113.13;6119404;23;20684;-63
2021/10/14 06:48:22;;;;;;;13.30;8.03;;;;;;;11.78;58.00;102113.47;6117328;23;20159;-63
2021/10/14 06:50:47;;;;;;;9.23;8.30;;;;;;;11.85;58.48;102113.47;6117081;23;20189;-63
2021/10/14 06:53:13;;;;;;;10.67;8.03;;;;;;;11.84;58.45;102099.97;6117855;23;20155;-63
2021/10/14 06:55:39;;;;;;;10.67;8.63;;;;;;;11.83;58.07;102087.28;6119570;23;20155;-63
2021/10/14 06:58:05;;;;;;;11.67;8.47;;;;;;;12.09;57.50;102109.72;6119826;23;20165;-63
2021/10/14 07:00:31;;;;;;;12.30;9.77;;;;;;;12.16;58.38;102115.25;6109829;23;20162;-64
2021/10/14 07:02:56;;;;;;;18.53;10.27;;;;;;;12.25;58.26;102121.13;6117573;23;20188;-64
2021/10/14 07:05:22;;;;;;;10.73;8.47;;;;;;;12.30;57.61;102112.34;6109837;23;20548;-63
2021/10/14 07:07:47;;;;;;;15.70;9.20;;;;;;;12.18;57.36;102087.03;6118752;23;20157;-64
2021/10/14 07:10:13;;;;;;;12.23;8.10;;;;;;;12.35;57.38;102113.91;6117243;23;20855;-64
2021/10/14 07:12:40;;;;;;;10.50;8.53;;;;;;;12.47;57.34;102113.41;6117320;23;20955;-64
2021/10/14 07:15:07;;;;;;;11.13;8.33;;;;;;;12.56;55.95;102106.19;6118560;23;20169;-64
2021/10/14 07:17:32;;;;;;;10.57;8.00;;;;;;;12.57;55.61;102115.31;6118454;23;20609;-64
2021/10/14 07:19:58;;;;;;;12.87;9.10;;;;;;;12.68;56.01;102110.47;6115718;23;20239;-64
2021/10/14 07:22:24;;;;;;;9.43;8.03;;;;;;;12.67;55.76;102106.91;6117939;23;20154;-64
2021/10/14 07:24:49;;;;;;;14.13;9.10;;;;;;;12.68;56.16;102111.25;6119380;23;20157;-64
2021/10/14 07:27:15;;;;;;;13.63;9.37;;;;;;;12.26;55.56;102041.31;6118161;23;20745;-62
2021/10/14 07:29:41;;;;;;;24.80;10.20;;;;;;;12.27;56.91;102071.50;6118603;23;20183;-62
2021/10/14 07:32:07;;;;;;;13.00;8.47;;;;;;;12.60;56.53;102114.53;6116338;23;20752;-64
2021/10/14 07:34:37;;;;;;;13.63;7.93;;;;;;;12.59;54.04;102122.06;6117003;23;20213;-64
2021/10/14 07:37:05;;;;;;;12.70;9.00;;;;;;;12.51;54.86;102117.75;6119519;23;20253;-65
2021/10/14 07:39:32;;;;;;;11.00;8.07;;;;;;;11.92;54.94;102104.28;6118094;23;20166;-64
2021/10/14 07:41:57;;;;;;;11.67;8.53;;;;;;;11.93;56.42;102128.09;6117003;23;20218;-64
2021/10/14 07:44:23;;;;;;;9.03;8.13;;;;;;;11.87;56.02;102124.94;6119646;23;20846;-64
2021/10/14 07:46:49;;;;;;;14.20;9.13;;;;;;;11.85;55.85;102126.53;6120304;23;20155;-65
2021/10/14 07:49:16;;;;;;;10.73;8.07;;;;;;;11.79;55.85;102130.94;6118669;23;20216;-64
2021/10/14 07:51:41;;;;;;;13.70;8.73;;;;;;;11.67;56.66;102148.03;6118213;23;20305;-64
2021/10/14 07:54:07;;;;;;;10.83;8.90;;;;;;;11.55;56.70;102143.72;6117532;23;20158;-64
2021/10/14 07:56:33;;;;;;;10.47;8.97;;;;;;;11.63;57.19;102136.94;6120318;23;20154;-63
2021/10/14 07:58:59;;;;;;;11.33;9.87;;;;;;;11.57;56.97;102118.31;6120367;23;20189;-63
2021/10/14 08:01:25;;;;;;;13.80;10.20;;;;;;;11.44;57.70;102098.56;6115995;23;20548;-63
2021/10/14 08:03:50;;;;;;;12.37;9.80;;;;;;;11.76;57.43;102121.44;6119112;23;20229;-64
2021/10/14 08:06:16;;;;;;;13.10;9.50;;;;;;;11.92;56.74;102135.63;6120698;23;20165;-63
2021/10/14 08:08:42;;;;;;;12.93;10.10;;;;;;;11.89;55.77;102136.44;6120654;23;20165;-64
2021/10/14 08:11:08;;;;;;;13.30;10.47;;;;;;;11.81;56.66;102136.88;6117178;23;20151;-64
2021/10/14 08:13:34;;;;;;;15.67;10.30;;;;;;;11.91;56.02;102136.03;6118061;23;20212;-64
2021/10/14 08:16:00;;;;;;;12.93;10.83;;;;;;;11.78;56.16;102138.47;6117771;23;20680;-63
2021/10/14 08:18:27;;;;;;;13.13;10.40;;;;;;;11.57;56.47;102146.06;6120789;23;20617;-64
2021/10/14 08:20:53;;;;;;;11.87;10.43;;;;;;;11.66;57.57;102140.91;6116981;23;20205;-64
2021/10/14 08:23:20;;;;;;;12.93;10.50;;;;;;;11.57;56.06;102126.63;6120294;23;20508;-64
2021/10/14 08:25:46;;;;;;;15.23;11.07;;;;;;;11.59;56.80;102132.63;6119227;23;20243;-64
2021/10/14 08:28:12;;;;;;;14.50;11.27;;;;;;;11.34;57.23;102095.81;6116998;23;20544;-64
2021/10/14 08:30:37;;;;;;;12.70;10.10;;;;;;;11.58;57.14;102134.56;6116072;23;20200;-64
2021/10/14 08:33:03;;;;;;;17.13;11.50;;;;;;;11.63;58.46;102130.63;6118545;23;20165;-64
2021/10/14 08:35:35;;;;;;;12.60;10.83;;;;;;;11.50;57.56;102112.78;6120131;23;20161;-64
2021/10/14 08:38:01;;;;;;;13.67;10.73;;;;;;;11.60;58.39;102131.41;6100384;23;20146;-63
2021/10/14 08:40:27;;;;;;;14.33;11.97;;;;;;;11.56;58.66;102134.19;6110802;23;20186;-63
2021/10/14 08:42:57;;;;;;;13.30;11.90;;;;;;;11.46;58.50;102121.13;6110206;23;20165;-63
2021/10/14 08:45:24;;;;;;;14.83;11.40;;;;;;;11.55;58.78;102127.06;6119570;23;20417;-64
2021/10/14 08:47:51;;;;;;;19.03;11.90;;;;;;;11.45;59.30;102127.09;6118371;23;20161;-64
2021/10/14 08:50:18;;;;;;;14.90;12.97;;;;;;;11.21;59.62;102108.50;6117047;23;20605;-64
2021/10/14 08:52:44;;;;;;;13.70;11.83;;;;;;;11.39;59.51;102125.91;6114460;23;20157;-64
2021/10/14 08:55:09;;;;;;;13.73;12.03;;;;;;;11.19;60.08;102095.06;6114655;23;20555;-64
2021/10/14 08:57:35;;;;;;;12.87;11.23;;;;;;;11.46;59.51;102126.69;6113697;23;20478;-63
2021/10/14 09:00:00;;;;;;;12.53;10.97;;;;;;;11.34;59.89;102115.22;6118392;23;20207;-64
2021/10/14 09:02:29;;;;;;;12.27;10.27;;;;;;;11.56;60.29;102130.59;6116061;23;20185;-64
2021/10/14 09:04:58;;;;;;;14.03;11.23;;;;;;;11.43;60.22;102101.72;6116059;23;20157;-64
2021/10/14 09:07:27;;;;;;;13.87;11.20;;;;;;;11.81;60.87;102128.53;6118358;23;20593;-64
2021/10/14 09:09:54;;;;;;;12.50;11.20;;;;;;;11.97;60.69;102121.31;6117569;23;20158;-64
2021/10/14 09:12:22;;;;;;;13.03;11.53;;;;;;;11.76;59.62;102082.56;6114587;23;20158;-64
2021/10/14 09:15:09;;;;;;;15.33;11.67;;;;;;;12.10;61.33;102116.84;6119375;23;20628;-64
2021/10/14 09:17:37;;;;;;;15.27;11.97;;;;;;;12.07;62.10;102125.22;6117955;23;20139;-64
2021/10/14 09:20:31;;;;;;;12.07;10.77;;;;;;;12.31;62.18;102129.81;6117449;23;20182;-64
2021/10/14 09:23:04;;;;;;;12.90;11.40;;;;;;;12.61;63.03;102121.66;6116647;23;20307;-64
2021/10/14 09:25:44;;;;;;;13.97;10.47;;;;;;;12.80;60.22;102107.19;6119420;23;20687;-64
2021/10/14 09:28:18;;;;;;;14.87;10.57;;;;;;;13.06;60.17;102115.69;6120259;23;20554;-64
2021/10/14 09:30:44;;;;;;;11.00;9.83;;;;;;;13.22;59.44;102120.69;6116377;23;20193;-64
2021/10/14 09:33:28;;;;;;;9.83;8.33;;;;;;;13.41;59.31;102120.84;6119554;23;20516;-64
2021/10/14 09:36:22;;;;;;;10.30;8.80;;;;;;;13.31;58.00;102123.75;6116485;23;20161;-64
2021/10/14 09:39:07;;;;;;;11.53;8.57;;;;;;;13.48;57.83;102115.19;6119301;23;20138;-64
2021/10/14 09:41:41;;;;;;;9.67;7.90;;;;;;;13.32;58.48;102122.56;6117263;23;20176;-64
2021/10/14 09:44:13;;;;;;;10.77;8.20;;;;;;;13.18;57.64;102117.94;6120674;23;20169;-64
2021/10/14 09:46:42;;;;;;;11.53;8.40;;;;;;;13.06;58.53;102109.34;6118339;23;20567;-65
2021/10/14 09:49:12;;;;;;;10.00;8.43;;;;;;;13.08;60.57;102118.84;6121047;23;20487;-64
2021/10/14 09:51:39;;;;;;;8.77;7.33;;;;;;;12.81;57.49;102089.28;6118548;23;20165;-63
2021/10/14 09:54:05;;;;;;;10.87;7.93;;;;;;;12.86;58.49;102113.88;6116059;23;20155;-64
2021/10/14 09:56:31;;;;;;;9.00;7.97;;;;;;;12.67;59.01;102101.34;6118759;23;20622;-64
2021/10/14 09:58:59;;;;;;;10.07;9.00;;;;;;;12.63;60.95;102114.47;6116682;23;20218;-64
2021/10/14 10:01:25;;;;;;;11.70;8.57;;;;;;;12.66;60.67;102124.00;6113910;23;20652;-64
2021/10/14 10:03:51;;;;;;;10.90;8.50;;;;;;;12.58;61.50;102114.91;6115429;23;20154;-63
2021/10/14 10:06:22;;;;;;;10.30;8.90;;;;;;;12.41;62.90;102101.94;6117820;23;20161;-63
2021/10/14 10:08:50;;;;;;;10.63;8.77;;;;;;;12.42;62.55;102116.63;6115724;23;20193;-63
2021/10/14 10:11:18;;;;;;;12.57;9.43;;;;;;;12.30;64.88;102117.91;6114087;23;20163;-63
2021/10/14 10:13:46;;;;;;;13.27;9.40;;;;;;;12.20;63.67;102121.56;6117478;23;20194;-63
2021/10/14 10:16:20;;;;;;;10.87;9.10;;;;;;;12.22;62.98;102118.38;6116059;23;20432;-62
2021/10/14 10:18:47;;;;;;;10.97;9.53;;;;;;;11.74;64.54;102067.50;6114601;23;20556;-62
2021/10/14 10:21:31;;;;;;;12.30;9.00;;;;;;;12.03;64.65;102125.25;6114153;23;20189;-62
2021/10/14 10:23:58;;;;;;;10.90;9.30;;;;;;;12.03;65.09;102127.22;6115759;23;20158;-63
2021/10/14 10:26:35;;;;;;;11.83;9.27;;;;;;;12.09;65.25;102122.84;6117716;23;20155;-63
2021/10/14 10:29:11;;;;;;;10.97;9.33;;;;;;;12.12;65.44;102122.00;6117716;23;20550;-63
2021/10/14 10:31:48;;;;;;;11.47;8.30;;;;;;;12.16;64.61;102115.25;6114539;23;20244;-63
2021/10/14 10:37:24;;;;;;;11.23;9.43;;;;;;;12.02;66.80;102117.31;6117499;23;20218;-63
2021/10/14 10:39:56;;;;;;;10.83;8.23;;;;;;;12.13;65.64;102118.03;6117221;23;20179;-63
2021/10/14 10:42:26;;;;;;;10.67;8.63;;;;;;;12.14;66.46;102112.06;6115997;23;20154;-64
2021/10/14 10:44:53;;;;;;;15.67;8.47;;;;;;;12.26;67.05;102116.38;6118742;23;20680;-64
2021/10/14 10:47:55;;;;;;;10.80;8.70;;;;;;;12.34;67.16;102112.34;6117939;23;20514;-64
2021/10/14 10:50:24;;;;;;;9.93;8.70;;;;;;;12.24;67.34;102113.97;6115043;23;20252;-64
2021/10/14 10:53:05;;;;;;;11.97;9.73;;;;;;;12.31;67.76;102115.94;6118054;23;20154;-64
2021/10/14 10:55:31;;;;;;;13.27;10.23;;;;;;;12.39;67.95;102118.25;6118639;23;20159;-63
2021/10/14 10:57:56;;;;;;;14.43;11.30;;;;;;;12.39;68.32;102121.03;6118662;23;20150;-63
2021/10/14 11:00:24;;;;;;;12.40;10.27;;;;;;;12.46;67.51;102117.41;6116852;23;20193;-64
2021/10/14 11:03:19;;;;;;;13.20;10.80;;;;;;;12.43;68.57;102121.78;6117630;23;20162;-64
2021/10/14 11:05:55;;;;;;;14.50;11.00;;;;;;;12.49;69.71;102122.13;6118003;23;20161;-63
2021/10/14 11:08:26;;;;;;;17.93;11.43;;;;;;;12.53;69.59;102118.13;6117553;23;20670;-64
2021/10/14 11:10:53;;;;;;;15.10;11.90;;;;;;;12.50;68.88;102118.94;6114206;23;20154;-64
2021/10/14 11:13:19;;;;;;;15.13;11.40;;;;;;;12.42;68.67;102113.84;6117894;23;20160;-64
2021/10/14 11:15:56;;;;;;;13.47;9.23;;;;;;;12.49;69.99;102119.34;6118337;23;20165;-64
2021/10/14 11:18:24;;;;;;;13.90;12.07;;;;;;;12.38;67.64;102121.44;6116583;23;20150;-64
2021/10/14 11:20:50;;;;;;;16.00;12.90;;;;;;;12.32;68.58;102109.97;6116341;23;20235;-64
2021/10/14 11:23:15;;;;;;;17.63;13.70;;;;;;;12.43;68.83;102119.00;6117616;23;20774;-64